Time;durP1;ratioP1;P1;durP2;ratioP2;P2;SDS_P1;SDS_P2;PMS_P1;PMS_P2;Temp;Humidity;BMP_temperature;BMP_pressure;BME280_temperature;BME280_humidity;BME280_pressure;Samples;Min_cycle;Max_cycle;Signal;HPM_P1;HPM_P2
2022/10/04 00:01:49;;;;;;;17.47;12.37;;;7.90;99.90;;;;;;5019432;28;20441;-68
2022/10/04 00:04:39;;;;;;;14.67;12.37;;;7.90;99.90;;;;;;5021762;28;20257;-68
2022/10/04 00:07:11;;;;;;;13.67;10.93;;;8.00;99.90;;;;;;5006281;28;20438;-68
2022/10/04 00:09:44;;;;;;;14.47;11.57;;;8.00;99.90;;;;;;5008283;28;20433;-68
2022/10/04 00:12:27;;;;;;;13.77;11.57;;;8.00;99.90;;;;;;5012408;28;20438;-68
2022/10/04 00:15:02;;;;;;;13.67;11.00;;;8.00;99.90;;;;;;5013551;28;20460;-68
2022/10/04 00:17:36;;;;;;;14.97;11.93;;;7.90;99.90;;;;;;5013052;28;20437;-68
2022/10/04 00:20:23;;;;;;;14.80;11.80;;;7.80;99.90;;;;;;5004733;28;20448;-68
2022/10/04 00:23:23;;;;;;;16.70;11.80;;;7.80;99.90;;;;;;5016213;28;20445;-68
2022/10/04 00:25:49;;;;;;;12.20;10.90;;;7.80;99.90;;;;;;5013724;28;21007;-68
2022/10/04 00:28:26;;;;;;;14.93;11.33;;;7.80;99.90;;;;;;5012320;28;20440;-68
2022/10/04 00:31:28;;;;;;;13.10;10.57;;;7.80;99.90;;;;;;5019729;28;20519;-68
2022/10/04 00:34:07;;;;;;;13.43;11.57;;;7.70;99.90;;;;;;4993926;28;20522;-69
2022/10/04 00:36:44;;;;;;;11.90;10.70;;;7.60;99.90;;;;;;5016223;28;20519;-68
2022/10/04 00:39:10;;;;;;;16.83;10.43;;;7.60;99.90;;;;;;5011285;28;20430;-68
2022/10/04 00:41:48;;;;;;;16.37;11.33;;;7.60;99.90;;;;;;5011218;28;20877;-69
2022/10/04 00:44:46;;;;;;;13.10;9.63;;;7.50;99.90;;;;;;5006124;28;20465;-68
2022/10/04 00:47:32;;;;;;;11.67;10.40;;;7.50;99.90;;;;;;5008577;28;20469;-67
2022/10/04 00:50:27;;;;;;;12.83;10.37;;;7.50;99.90;;;;;;5011688;28;20440;-68
2022/10/04 00:52:56;;;;;;;13.13;10.57;;;7.50;99.90;;;;;;4999989;28;20819;-68
2022/10/04 00:55:39;;;;;;;13.90;10.53;;;7.50;99.90;;;;;;5002961;28;20955;-68
2022/10/04 00:58:15;;;;;;;12.87;9.60;;;7.40;99.90;;;;;;5008831;28;20935;-68
2022/10/04 01:00:42;;;;;;;14.30;11.10;;;7.40;99.90;;;;;;5011550;28;20813;-68
2022/10/04 01:03:13;;;;;;;13.37;10.40;;;7.40;99.90;;;;;;5009828;28;20430;-68
2022/10/04 01:05:45;;;;;;;17.00;9.60;;;7.40;99.90;;;;;;5011666;28;20465;-69
2022/10/04 01:08:25;;;;;;;12.00;10.80;;;7.40;99.90;;;;;;5009437;28;20927;-68
2022/10/04 01:11:05;;;;;;;13.40;10.90;;;7.40;99.90;;;;;;5012331;28;20799;-68
2022/10/04 01:13:44;;;;;;;12.33;10.40;;;7.40;99.90;;;;;;5010603;28;20433;-69
2022/10/04 01:16:25;;;;;;;10.80;8.90;;;7.40;99.90;;;;;;5006500;28;20484;-68
2022/10/04 01:18:52;;;;;;;14.63;9.13;;;7.30;99.90;;;;;;5011420;28;20500;-69
2022/10/04 01:21:17;;;;;;;11.13;9.97;;;7.30;99.90;;;;;;5008116;28;20441;-69
2022/10/04 01:23:48;;;;;;;14.70;10.50;;;7.30;99.90;;;;;;5010940;28;20588;-68
2022/10/04 01:26:25;;;;;;;14.07;11.47;;;7.20;99.90;;;;;;5011005;28;20286;-69
2022/10/04 01:29:07;;;;;;;12.70;10.90;;;7.20;99.90;;;;;;5006969;28;20436;-68
2022/10/04 01:31:36;;;;;;;11.07;9.30;;;7.20;99.90;;;;;;5010179;28;20484;-69
2022/10/04 01:34:04;;;;;;;14.97;13.47;;;7.20;99.90;;;;;;5006259;28;20425;-68
2022/10/04 01:36:29;;;;;;;17.20;10.90;;;7.20;99.90;;;;;;5010172;28;20429;-68
2022/10/04 01:38:56;;;;;;;13.30;9.00;;;7.30;99.90;;;;;;5010759;28;20540;-68
2022/10/04 01:41:42;;;;;;;13.23;10.43;;;7.30;99.90;;;;;;5010260;28;20436;-68
2022/10/04 01:44:13;;;;;;;14.90;8.87;;;7.40;99.90;;;;;;5009092;28;20465;-68
2022/10/04 01:46:40;;;;;;;12.90;10.20;;;7.30;99.90;;;;;;5009997;28;21217;-68
2022/10/04 01:49:17;;;;;;;17.37;10.43;;;7.30;99.90;;;;;;5009254;28;20437;-69
2022/10/04 01:51:53;;;;;;;13.30;8.43;;;7.30;99.90;;;;;;5010925;28;20429;-68
2022/10/04 01:54:29;;;;;;;15.80;9.00;;;7.10;99.90;;;;;;5008346;28;20472;-69
2022/10/04 01:57:05;;;;;;;11.70;9.50;;;7.10;99.90;;;;;;5008596;28;20847;-68
2022/10/04 01:59:50;;;;;;;12.57;8.73;;;7.10;99.90;;;;;;5010059;28;20442;-69
2022/10/04 02:02:30;;;;;;;12.00;9.53;;;7.10;99.90;;;;;;5009920;28;20967;-68
2022/10/04 02:04:58;;;;;;;11.87;9.37;;;7.10;99.90;;;;;;5008704;28;20477;-69
2022/10/04 02:07:28;;;;;;;12.80;10.00;;;7.10;99.90;;;;;;5002979;28;20441;-69
2022/10/04 02:09:58;;;;;;;16.80;10.47;;;7.10;99.90;;;;;;5008566;28;20938;-68
2022/10/04 02:12:27;;;;;;;10.77;9.70;;;7.00;99.90;;;;;;5013552;28;20437;-69
2022/10/04 02:14:54;;;;;;;15.87;9.73;;;7.10;99.90;;;;;;5009549;28;20453;-69
2022/10/04 02:17:27;;;;;;;11.60;10.20;;;7.20;99.90;;;;;;5009607;28;20511;-68
2022/10/04 02:19:53;;;;;;;13.93;9.63;;;7.20;99.90;;;;;;5007483;28;20429;-69
2022/10/04 02:22:19;;;;;;;12.57;11.00;;;7.30;99.90;;;;;;5008921;28;20441;-69
2022/10/04 02:24:48;;;;;;;12.33;11.03;;;7.30;99.90;;;;;;5009344;28;20951;-69
2022/10/04 02:27:14;;;;;;;9.63;8.63;;;7.30;99.90;;;;;;5013163;28;20444;-68
2022/10/04 02:29:40;;;;;;;12.50;9.73;;;7.30;99.90;;;;;;5010160;28;20446;-68
2022/10/04 02:34:53;;;;;;;13.00;10.40;;;7.10;99.90;;;;;;5009711;28;20206;-68
2022/10/04 02:37:22;;;;;;;15.97;12.50;;;7.10;99.90;;;;;;5009438;28;20437;-69
2022/10/04 02:39:51;;;;;;;13.97;11.97;;;7.10;99.90;;;;;;5008658;28;20437;-68
2022/10/04 02:42:53;;;;;;;13.90;10.30;;;7.10;99.90;;;;;;5010600;28;20425;-68
2022/10/04 02:45:26;;;;;;;10.40;9.37;;;7.00;99.90;;;;;;5008799;28;20481;-68
2022/10/04 02:47:57;;;;;;;12.50;10.10;;;7.00;99.90;;;;;;5008333;28;21005;-68
2022/10/04 02:50:34;;;;;;;14.13;10.67;;;6.80;99.90;;;;;;5009356;28;20525;-68
2022/10/04 02:53:17;;;;;;;12.23;9.53;;;6.80;99.90;;;;;;5013427;28;20433;-69
2022/10/04 02:55:44;;;;;;;11.70;9.90;;;6.80;99.90;;;;;;5012394;28;20469;-68
2022/10/04 02:58:16;;;;;;;11.40;9.50;;;6.80;99.90;;;;;;5014063;28;20445;-69
2022/10/04 03:00:49;;;;;;;11.90;10.13;;;6.80;99.90;;;;;;5011973;28;20529;-68
2022/10/04 03:03:25;;;;;;;10.90;8.57;;;6.70;99.90;;;;;;5011834;28;20433;-69
2022/10/04 03:06:03;;;;;;;12.37;9.63;;;6.70;99.90;;;;;;5012746;28;20453;-69
2022/10/04 03:08:32;;;;;;;10.43;9.27;;;6.70;99.90;;;;;;5012048;28;20433;-68
2022/10/04 03:10:59;;;;;;;13.33;9.20;;;6.70;99.90;;;;;;5013949;28;20437;-68
2022/10/04 03:13:25;;;;;;;11.37;9.43;;;6.70;99.90;;;;;;5011824;28;20462;-68
2022/10/04 03:15:51;;;;;;;14.73;10.50;;;6.60;99.90;;;;;;5013702;28;20535;-69
2022/10/04 03:18:18;;;;;;;18.60;9.97;;;6.60;99.90;;;;;;5012467;28;20927;-68
2022/10/04 03:20:45;;;;;;;11.50;9.23;;;6.70;99.90;;;;;;5013194;28;20460;-69
2022/10/04 03:23:13;;;;;;;10.40;9.40;;;6.70;99.90;;;;;;5011880;28;20433;-69
2022/10/04 03:25:59;;;;;;;11.87;9.67;;;6.70;99.90;;;;;;5011916;28;20461;-69
2022/10/04 03:28:25;;;;;;;11.00;9.87;;;6.70;99.90;;;;;;5014810;28;20433;-68
2022/10/04 03:30:51;;;;;;;10.30;9.20;;;6.70;99.90;;;;;;5027470;28;20420;-68
2022/10/04 03:33:22;;;;;;;14.57;9.93;;;6.60;99.90;;;;;;5021989;28;20430;-68
2022/10/04 03:35:54;;;;;;;13.50;8.57;;;6.70;99.90;;;;;;5023518;28;20211;-68
2022/10/04 03:38:21;;;;;;;10.63;8.30;;;6.70;99.90;;;;;;5023551;28;20437;-68
2022/10/04 03:40:55;;;;;;;13.17;11.23;;;6.70;99.90;;;;;;5022926;28;21090;-69
2022/10/04 03:43:24;;;;;;;13.10;11.70;;;6.70;99.90;;;;;;5020192;28;20421;-68
2022/10/04 03:45:51;;;;;;;26.97;10.47;;;6.70;99.90;;;;;;5015462;28;20457;-69
2022/10/04 03:48:26;;;;;;;13.80;8.90;;;6.60;99.90;;;;;;5019845;28;20433;-69
2022/10/04 03:50:53;;;;;;;11.80;9.63;;;6.60;99.90;;;;;;5015022;28;20417;-68
2022/10/04 03:53:36;;;;;;;10.33;8.83;;;6.70;99.90;;;;;;5014247;28;20799;-68
2022/10/04 03:56:07;;;;;;;14.53;8.83;;;6.70;99.90;;;;;;5014261;28;20515;-67
2022/10/04 03:58:34;;;;;;;9.83;8.43;;;6.70;99.90;;;;;;5014670;28;20501;-67
2022/10/04 04:01:23;;;;;;;9.73;8.83;;;6.70;99.90;;;;;;5013933;28;20492;-67
2022/10/04 04:04:15;;;;;;;17.73;9.50;;;6.70;99.90;;;;;;5013501;28;20468;-67
2022/10/04 04:06:55;;;;;;;13.43;9.57;;;6.70;99.90;;;;;;5012678;28;20429;-67
2022/10/04 04:09:44;;;;;;;11.17;9.17;;;6.70;99.90;;;;;;5012349;28;21076;-67
2022/10/04 04:12:20;;;;;;;12.03;8.83;;;6.70;99.90;;;;;;5006382;28;20440;-67
2022/10/04 04:14:49;;;;;;;13.93;9.67;;;6.80;99.90;;;;;;5013349;28;20465;-67
2022/10/04 04:17:37;;;;;;;11.13;8.00;;;6.80;99.90;;;;;;5012673;28;20456;-67
2022/10/04 04:20:12;;;;;;;12.07;9.63;;;6.70;99.90;;;;;;5013174;28;20433;-67
2022/10/04 04:22:41;;;;;;;15.13;10.50;;;6.80;99.90;;;;;;5013360;28;20437;-67
2022/10/04 04:25:13;;;;;;;13.13;9.80;;;6.80;99.90;;;;;;5009715;28;20469;-66
2022/10/04 04:27:41;;;;;;;15.40;9.63;;;6.80;99.90;;;;;;5010452;28;20441;-67
2022/10/04 04:30:10;;;;;;;10.63;9.53;;;6.90;99.90;;;;;;5008247;28;20438;-68
2022/10/04 04:32:40;;;;;;;14.90;8.90;;;6.90;99.90;;;;;;5009918;28;20430;-68
2022/10/04 04:35:19;;;;;;;13.30;10.70;;;6.90;99.90;;;;;;5012620;28;20461;-67
2022/10/04 04:38:02;;;;;;;12.73;10.07;;;6.90;99.90;;;;;;5009932;28;21077;-67
2022/10/04 04:40:27;;;;;;;10.60;8.27;;;6.80;99.90;;;;;;5012613;28;20472;-67
2022/10/04 04:42:58;;;;;;;17.20;8.90;;;6.80;99.90;;;;;;5016888;28;20549;-67
2022/10/04 04:45:28;;;;;;;10.73;8.97;;;6.80;99.90;;;;;;5011773;28;20214;-67
2022/10/04 04:47:56;;;;;;;9.27;8.10;;;6.80;99.90;;;;;;5011881;28;20488;-67
2022/10/04 04:50:23;;;;;;;10.73;9.17;;;6.80;99.90;;;;;;5010644;28;20448;-68
2022/10/04 04:52:56;;;;;;;19.93;10.63;;;6.80;99.90;;;;;;5014039;28;20508;-67
2022/10/04 04:55:28;;;;;;;12.90;8.87;;;6.70;99.90;;;;;;5007183;28;20567;-67
2022/10/04 04:57:56;;;;;;;8.63;7.03;;;6.60;99.90;;;;;;5010776;28;20460;-67
2022/10/04 05:00:28;;;;;;;10.60;7.50;;;6.60;99.90;;;;;;5009553;28;20508;-68
2022/10/04 05:02:56;;;;;;;12.27;9.40;;;6.60;99.90;;;;;;5011819;28;20449;-67
2022/10/04 05:05:30;;;;;;;12.30;7.50;;;6.60;99.90;;;;;;5011189;28;20484;-67
2022/10/04 05:08:17;;;;;;;10.43;9.00;;;6.60;99.90;;;;;;5011621;28;20448;-67
2022/10/04 05:11:10;;;;;;;14.57;8.70;;;6.60;99.90;;;;;;5010908;28;20452;-66
2022/10/04 05:13:47;;;;;;;12.30;9.50;;;6.50;99.90;;;;;;5009660;28;20450;-68
2022/10/04 05:16:23;;;;;;;9.77;8.07;;;6.50;99.90;;;;;;5011887;28;20840;-67
2022/10/04 05:19:12;;;;;;;9.27;7.07;;;6.40;99.90;;;;;;5011097;28;20444;-67
2022/10/04 05:21:41;;;;;;;13.37;8.70;;;6.50;99.90;;;;;;5005468;28;20491;-67
2022/10/04 05:24:16;;;;;;;23.23;9.20;;;6.50;99.90;;;;;;5011387;28;20466;-67
2022/10/04 05:26:42;;;;;;;9.93;7.20;;;6.50;99.90;;;;;;5012122;28;20445;-66
2022/10/04 05:29:14;;;;;;;10.67;7.50;;;6.60;99.90;;;;;;5010228;28;20442;-67
2022/10/04 05:31:48;;;;;;;11.30;7.70;;;6.60;99.90;;;;;;5011441;28;20814;-67
2022/10/04 05:34:23;;;;;;;12.30;8.67;;;6.60;99.90;;;;;;5005911;28;20482;-67
2022/10/04 05:37:23;;;;;;;13.77;8.83;;;6.60;99.90;;;;;;5009455;28;20499;-66
2022/10/04 05:40:03;;;;;;;12.03;9.57;;;6.70;99.90;;;;;;5008981;28;20454;-68
2022/10/04 05:42:44;;;;;;;11.27;8.77;;;6.70;99.90;;;;;;5011854;28;20465;-67
2022/10/04 05:45:30;;;;;;;15.87;9.70;;;6.70;99.90;;;;;;5009960;28;20475;-67
2022/10/04 05:47:59;;;;;;;9.93;8.20;;;6.70;99.90;;;;;;5008356;28;20960;-67
2022/10/04 05:50:40;;;;;;;15.27;9.53;;;6.70;99.90;;;;;;5016236;28;20442;-67
2022/10/04 05:53:25;;;;;;;19.43;10.47;;;6.80;99.90;;;;;;5004728;28;20486;-68
2022/10/04 05:56:17;;;;;;;10.50;8.80;;;6.80;99.90;;;;;;5011202;28;20523;-66
2022/10/04 05:59:21;;;;;;;14.93;10.70;;;6.80;99.90;;;;;;5011513;28;20488;-67
2022/10/04 06:02:00;;;;;;;12.70;9.60;;;6.90;99.90;;;;;;4994718;28;20440;-66
2022/10/04 06:04:50;;;;;;;10.10;9.07;;;7.00;99.90;;;;;;5010378;28;20580;-68
2022/10/04 06:07:21;;;;;;;10.03;7.97;;;7.10;99.90;;;;;;5015320;28;20444;-66
2022/10/04 06:10:26;;;;;;;11.87;10.67;;;7.20;99.90;;;;;;5016297;28;20438;-66
2022/10/04 06:13:12;;;;;;;13.97;10.20;;;7.30;99.90;;;;;;4967325;28;20460;-66
2022/10/04 06:15:56;;;;;;;11.60;9.50;;;7.40;99.90;;;;;;5016242;28;20997;-67
2022/10/04 06:19:03;;;;;;;16.20;9.90;;;7.50;99.90;;;;;;5012887;28;20441;-66
2022/10/04 06:21:34;;;;;;;13.27;9.63;;;7.60;99.90;;;;;;5022844;28;20498;-67
2022/10/04 06:24:34;;;;;;;15.47;11.23;;;7.60;99.90;;;;;;5018171;28;20472;-67
2022/10/04 06:27:09;;;;;;;12.90;10.63;;;7.70;99.90;;;;;;5001760;28;20456;-67
2022/10/04 06:29:41;;;;;;;10.87;9.40;;;7.80;99.90;;;;;;5020662;28;20440;-67
2022/10/04 06:32:25;;;;;;;15.67;12.00;;;7.80;99.90;;;;;;5018971;28;20445;-67
2022/10/04 06:35:07;;;;;;;11.87;9.80;;;8.00;99.90;;;;;;5017859;28;20966;-67
2022/10/04 06:38:01;;;;;;;13.67;10.77;;;8.00;99.90;;;;;;5019081;28;20437;-67
2022/10/04 06:40:35;;;;;;;10.63;9.47;;;8.10;99.90;;;;;;5021822;28;20518;-67
2022/10/04 06:43:12;;;;;;;20.80;10.03;;;8.30;99.90;;;;;;5020161;28;21008;-66
2022/10/04 06:46:16;;;;;;;14.40;10.23;;;8.30;99.90;;;;;;5008665;28;20476;-67
2022/10/04 06:48:59;;;;;;;11.70;10.30;;;8.40;99.90;;;;;;5011139;28;20440;-67
2022/10/04 06:51:40;;;;;;;14.00;10.30;;;8.60;99.90;;;;;;5018955;28;20524;-67
2022/10/04 06:54:06;;;;;;;15.77;11.30;;;8.70;99.90;;;;;;5016411;28;20464;-67
2022/10/04 06:56:56;;;;;;;17.70;12.80;;;8.80;99.90;;;;;;5013365;28;21170;-67
2022/10/04 06:59:40;;;;;;;11.93;10.57;;;8.90;99.90;;;;;;4996478;28;20190;-66
2022/10/04 07:02:19;;;;;;;13.17;10.03;;;9.10;99.90;;;;;;5008107;28;21014;-67
2022/10/04 07:04:57;;;;;;;12.43;10.20;;;9.20;99.90;;;;;;5006253;28;21080;-67
2022/10/04 07:07:34;;;;;;;12.73;9.60;;;9.40;99.90;;;;;;5009310;28;20444;-66
2022/10/04 07:10:18;;;;;;;10.87;9.77;;;9.50;99.90;;;;;;5012968;28;20429;-68
2022/10/04 07:12:57;;;;;;;13.47;9.53;;;9.60;99.90;;;;;;5005941;28;20472;-68
2022/10/04 07:15:29;;;;;;;9.83;8.70;;;9.90;99.90;;;;;;5006381;28;21353;-68
2022/10/04 07:17:57;;;;;;;10.50;8.77;;;10.00;99.90;;;;;;5009610;28;20445;-69
2022/10/04 07:20:30;;;;;;;12.30;9.20;;;10.10;99.90;;;;;;5015208;28;20490;-68
2022/10/04 07:23:15;;;;;;;10.00;8.10;;;10.20;99.90;;;;;;5019418;28;20446;-68
2022/10/04 07:25:47;;;;;;;7.70;7.00;;;10.20;99.90;;;;;;5019800;28;20484;-69
2022/10/04 07:31:21;;;;;;;10.00;8.70;;;10.00;99.90;;;;;;5010487;28;20533;-68
2022/10/04 07:33:53;;;;;;;9.37;7.77;;;10.00;99.90;;;;;;5016079;28;20509;-69
2022/10/04 07:36:23;;;;;;;10.60;8.03;;;10.10;99.90;;;;;;5010462;28;20461;-68
2022/10/04 07:39:01;;;;;;;8.37;7.30;;;10.20;99.90;;;;;;5015928;28;20440;-68
2022/10/04 07:41:50;;;;;;;8.47;7.57;;;10.40;99.90;;;;;;5009972;28;20448;-68
2022/10/04 07:44:35;;;;;;;10.20;7.90;;;10.40;99.90;;;;;;5016672;28;20472;-69
2022/10/04 07:47:20;;;;;;;7.90;7.10;;;10.60;99.90;;;;;;5013472;28;20433;-69
2022/10/04 07:49:49;;;;;;;10.30;7.43;;;10.80;99.90;;;;;;5012179;28;20457;-69
2022/10/04 07:53:04;;;;;;;7.57;6.87;;;11.00;99.90;;;;;;5011823;28;20457;-69
2022/10/04 07:55:54;;;;;;;7.77;7.07;;;11.10;99.90;;;;;;5011667;28;20473;-69
2022/10/04 07:58:43;;;;;;;8.93;7.00;;;11.20;99.90;;;;;;5000961;28;20835;-68
2022/10/04 08:01:32;;;;;;;9.10;8.13;;;11.40;99.90;;;;;;5014309;28;20434;-67
2022/10/04 08:04:08;;;;;;;9.00;6.70;;;11.50;99.90;;;;;;5006946;28;20461;-68
2022/10/04 08:06:37;;;;;;;14.13;8.30;;;11.60;99.90;;;;;;5013563;28;20847;-67
2022/10/04 08:09:24;;;;;;;10.83;8.40;;;11.70;99.90;;;;;;5010177;28;20444;-68
2022/10/04 08:12:30;;;;;;;8.83;7.30;;;12.00;99.90;;;;;;5019145;28;20422;-68
2022/10/04 08:15:02;;;;;;;8.40;7.20;;;12.20;99.90;;;;;;5015339;28;20484;-68
2022/10/04 08:18:14;;;;;;;8.90;6.97;;;12.60;99.90;;;;;;5014812;28;20428;-69
2022/10/04 08:20:43;;;;;;;9.07;6.53;;;12.60;99.90;;;;;;4988648;28;20429;-68
2022/10/04 08:23:33;;;;;;;7.40;6.80;;;12.90;99.90;;;;;;5013354;28;20923;-68
2022/10/04 08:26:21;;;;;;;14.73;12.57;;;12.70;99.90;;;;;;5012850;28;20450;-68
2022/10/04 08:32:03;;;;;;;9.17;6.67;;;12.60;99.90;;;;;;5013109;28;20424;-69
2022/10/04 08:34:50;;;;;;;8.53;7.30;;;12.40;99.90;;;;;;5013349;28;20485;-68
2022/10/04 08:37:52;;;;;;;8.10;6.97;;;12.40;99.90;;;;;;5011778;28;20434;-69
2022/10/04 08:40:48;;;;;;;8.57;6.97;;;12.40;99.90;;;;;;4994314;28;20414;-69
2022/10/04 08:43:44;;;;;;;9.47;7.00;;;12.40;99.90;;;;;;5008909;28;20996;-68
2022/10/04 08:46:45;;;;;;;8.43;6.77;;;12.80;99.90;;;;;;5008913;28;20453;-68
2022/10/04 08:49:20;;;;;;;8.50;7.40;;;13.20;99.90;;;;;;5005215;28;20580;-69
2022/10/04 08:52:04;;;;;;;10.80;7.67;;;13.40;99.90;;;;;;5014973;28;20931;-68
2022/10/04 08:55:07;;;;;;;7.70;6.90;;;13.70;99.90;;;;;;5008489;28;21043;-68
2022/10/04 08:58:04;;;;;;;7.87;7.07;;;14.40;99.90;;;;;;5011775;28;20871;-70
2022/10/04 09:00:56;;;;;;;9.90;8.90;;;15.10;99.90;;;;;;5007313;28;20455;-69
2022/10/04 09:04:01;;;;;;;8.43;6.20;;;15.00;99.90;;;;;;5009078;28;20437;-70
2022/10/04 09:06:38;;;;;;;8.30;6.63;;;15.70;99.90;;;;;;5013347;28;20568;-68
2022/10/04 09:09:06;;;;;;;8.10;7.40;;;16.90;99.90;;;;;;5010505;28;20950;-68
2022/10/04 09:12:07;;;;;;;7.50;6.53;;;18.30;99.90;;;;;;5006993;28;20439;-69
2022/10/04 09:14:45;;;;;;;11.23;6.90;;;19.50;99.90;;;;;;5004025;28;20466;-69
2022/10/04 09:17:52;;;;;;;5.33;4.83;;;20.40;99.90;;;;;;5008282;28;20820;-70
2022/10/04 09:20:20;;;;;;;5.60;4.63;;;19.80;99.90;;;;;;4970305;28;20493;-69
2022/10/04 09:23:15;;;;;;;6.00;4.73;;;18.80;99.90;;;;;;5002850;28;20450;-69
2022/10/04 09:25:48;;;;;;;4.23;3.70;;;17.60;99.90;;;;;;5000710;28;20480;-69
2022/10/04 09:28:21;;;;;;;5.03;4.57;;;17.90;99.90;;;;;;5002101;28;20451;-70
2022/10/04 09:30:58;;;;;;;8.20;4.87;;;18.40;99.90;;;;;;5011568;28;20433;-69
2022/10/04 09:33:29;;;;;;;7.20;5.10;;;19.30;99.90;;;;;;5011791;28;20802;-69
2022/10/04 09:36:23;;;;;;;7.40;4.90;;;19.70;99.90;;;;;;5009190;28;20465;-69
2022/10/04 09:39:02;;;;;;;7.53;4.20;;;20.00;99.90;;;;;;5011484;28;20440;-69
2022/10/04 09:41:51;;;;;;;7.40;5.13;;;20.90;99.90;;;;;;5011790;28;20806;-69
2022/10/04 09:44:45;;;;;;;5.93;5.40;;;20.80;99.90;;;;;;5009826;28;20516;-68
2022/10/04 09:47:16;;;;;;;6.90;5.00;;;19.30;99.90;;;;;;5010306;28;20434;-68
2022/10/04 09:49:54;;;;;;;6.20;4.10;;;17.90;99.90;;;;;;5006102;28;20461;-69
2022/10/04 09:52:32;;;;;;;6.43;5.57;;;17.60;99.90;;;;;;5008564;28;20437;-68
2022/10/04 09:55:23;;;;;;;6.30;4.37;;;17.60;99.90;;;;;;5011090;28;20480;-68
2022/10/04 09:58:08;;;;;;;7.13;6.50;;;18.00;99.90;;;;;;5008992;28;20812;-69
2022/10/04 10:01:12;;;;;;;6.50;5.30;;;19.00;99.90;;;;;;5004597;28;20430;-68
2022/10/04 10:04:07;;;;;;;5.33;4.73;;;19.50;99.90;;;;;;5005885;28;20521;-69
2022/10/04 10:06:49;;;;;;;5.73;5.20;;;20.90;99.90;;;;;;4991896;28;20798;-69
2022/10/04 10:15:57;;;;;;;5.77;5.27;;;22.80;98.80;;;;;;5012814;28;20507;-69
2022/10/04 10:18:41;;;;;;;8.90;4.77;;;23.20;95.90;;;;;;5012575;28;21160;-69
2022/10/04 10:21:34;;;;;;;5.70;5.20;;;23.20;96.70;;;;;;5012369;28;20493;-69
2022/10/04 10:24:23;;;;;;;5.93;5.37;;;24.60;92.60;;;;;;5012441;28;20453;-69
2022/10/04 10:27:18;;;;;;;5.93;5.33;;;25.10;91.50;;;;;;5012427;28;20420;-69
2022/10/04 10:30:05;;;;;;;7.20;4.67;;;23.90;91.00;;;;;;4977068;28;20496;-69
2022/10/04 10:32:52;;;;;;;7.87;4.77;;;24.50;92.00;;;;;;5012384;28;20414;-69
2022/10/04 10:35:38;;;;;;;5.60;4.30;;;25.40;89.30;;;;;;5012148;28;20480;-69
2022/10/04 10:38:39;;;;;;;12.73;4.57;;;26.30;84.70;;;;;;5012380;28;20471;-69
2022/10/04 10:41:49;;;;;;;5.87;4.17;;;26.40;80.20;;;;;;5012108;28;20426;-69
2022/10/04 10:44:25;;;;;;;10.70;4.43;;;26.10;78.30;;;;;;4927627;29;20469;-69
2022/10/04 10:47:18;;;;;;;5.17;4.67;;;25.80;79.90;;;;;;4922910;29;20489;-69
2022/10/04 10:50:21;;;;;;;4.80;3.90;;;26.60;78.00;;;;;;4988184;28;20441;-69
2022/10/04 10:52:53;;;;;;;6.37;5.37;;;27.70;73.40;;;;;;5015646;28;20453;-69
2022/10/04 10:55:30;;;;;;;7.13;5.00;;;28.40;71.20;;;;;;5011099;28;20527;-69
2022/10/04 10:58:30;;;;;;;6.23;5.10;;;29.20;66.80;;;;;;5009818;28;20452;-69
2022/10/04 11:01:23;;;;;;;6.90;5.13;;;29.80;64.30;;;;;;5013093;28;20945;-70
2022/10/04 11:04:03;;;;;;;5.87;5.30;;;29.50;60.80;;;;;;5005397;28;20460;-69
2022/10/04 11:06:48;;;;;;;7.30;5.80;;;29.70;61.70;;;;;;5011576;28;20520;-69
2022/10/04 11:09:26;;;;;;;4.27;3.87;;;29.20;61.10;;;;;;5012680;28;20433;-70
2022/10/04 11:12:10;;;;;;;5.97;4.03;;;29.30;61.50;;;;;;5009511;28;20514;-71
2022/10/04 11:15:02;;;;;;;5.90;5.00;;;30.00;59.40;;;;;;5023053;28;21057;-72
2022/10/04 11:18:03;;;;;;;13.40;12.30;;;31.20;57.50;;;;;;5015664;28;20448;-72
2022/10/04 11:20:31;;;;;;;5.43;4.93;;;31.80;56.10;;;;;;5013008;28;20444;-72
2022/10/04 11:23:12;;;;;;;6.13;4.60;;;32.30;55.10;;;;;;5014112;28;20565;-72
2022/10/04 11:25:41;;;;;;;7.07;4.70;;;33.10;53.10;;;;;;5015764;28;20844;-71
2022/10/04 11:28:19;;;;;;;4.73;4.33;;;33.90;51.30;;;;;;5015374;28;20512;-71
2022/10/04 11:30:57;;;;;;;4.47;4.07;;;34.10;49.10;;;;;;5013935;28;20966;-70
2022/10/04 11:33:59;;;;;;;5.57;4.97;;;34.20;48.60;;;;;;5018265;28;21053;-70
2022/10/04 11:36:58;;;;;;;5.90;4.67;;;34.10;47.90;;;;;;5012815;28;20487;-70
2022/10/04 11:39:33;;;;;;;3.33;3.10;;;34.20;47.20;;;;;;5006228;28;20434;-70
2022/10/04 11:42:16;;;;;;;3.67;2.70;;;33.40;47.00;;;;;;5010772;28;20441;-70
2022/10/04 11:45:01;;;;;;;3.20;2.90;;;31.70;49.20;;;;;;5011821;28;20477;-70
2022/10/04 11:48:00;;;;;;;3.37;3.07;;;30.60;48.20;;;;;;5017408;28;20439;-70
2022/10/04 11:50:44;;;;;;;4.97;3.70;;;29.00;50.90;;;;;;5011946;28;20440;-70
2022/10/04 11:54:02;;;;;;;7.10;4.10;;;28.30;53.60;;;;;;5014443;28;20515;-70
2022/10/04 11:56:40;;;;;;;5.30;4.90;;;28.00;55.90;;;;;;4979943;28;20448;-70
2022/10/04 11:59:36;;;;;;;2.93;2.63;;;29.10;55.20;;;;;;5011434;28;20496;-70
2022/10/04 12:02:33;;;;;;;3.40;3.10;;;30.90;50.40;;;;;;5018943;28;20445;-70
2022/10/04 12:05:25;;;;;;;3.13;2.87;;;31.60;48.80;;;;;;5007529;28;20526;-70
2022/10/04 12:08:15;;;;;;;2.90;2.70;;;29.70;51.00;;;;;;5009773;28;20446;-70
2022/10/04 12:10:48;;;;;;;3.27;2.97;;;29.70;50.70;;;;;;5012965;28;20437;-69
2022/10/04 12:13:38;;;;;;;3.70;2.90;;;29.10;51.70;;;;;;5012355;28;20492;-70
2022/10/04 12:16:13;;;;;;;3.00;2.80;;;29.90;51.10;;;;;;5012683;28;20453;-70
2022/10/04 12:19:24;;;;;;;3.43;3.07;;;30.00;50.30;;;;;;5012270;28;20930;-70
2022/10/04 12:21:57;;;;;;;3.10;2.90;;;29.80;50.60;;;;;;5003069;28;21099;-70
2022/10/04 12:25:14;;;;;;;2.97;2.77;;;31.50;49.10;;;;;;5007046;28;20472;-70
2022/10/04 12:27:48;;;;;;;2.60;2.40;;;31.20;48.50;;;;;;4988787;28;20947;-70
2022/10/04 12:30:13;;;;;;;4.90;2.90;;;31.80;47.70;;;;;;5012164;28;20492;-70
2022/10/04 12:32:56;;;;;;;4.40;2.70;;;32.90;48.10;;;;;;5010370;28;20525;-68
2022/10/04 12:36:02;;;;;;;2.30;2.13;;;33.60;45.90;;;;;;5009405;28;20196;-67
2022/10/04 12:38:40;;;;;;;2.50;2.30;;;32.40;46.20;;;;;;5007286;28;20457;-70
2022/10/04 12:41:42;;;;;;;3.00;2.70;;;32.20;47.20;;;;;;5016049;28;20444;-70
2022/10/04 12:44:49;;;;;;;4.50;3.13;;;33.80;45.90;;;;;;5008433;28;20831;-70
2022/10/04 12:47:35;;;;;;;5.27;3.77;;;32.00;46.20;;;;;;4997987;28;20446;-70
2022/10/04 12:50:07;;;;;;;4.20;3.20;;;31.30;48.20;;;;;;5010634;28;20434;-70
2022/10/04 12:52:45;;;;;;;2.73;2.47;;;32.90;45.90;;;;;;5016069;28;20478;-70
2022/10/04 12:55:33;;;;;;;3.97;2.70;;;34.10;44.80;;;;;;5007722;28;20814;-70
2022/10/04 12:58:06;;;;;;;4.80;4.30;;;35.50;43.10;;;;;;5022076;28;20490;-70
2022/10/04 13:00:40;;;;;;;2.80;2.60;;;38.30;41.50;;;;;;5011610;28;20433;-70
2022/10/04 13:03:44;;;;;;;3.20;2.87;;;40.10;37.80;;;;;;5006867;28;21161;-68
2022/10/04 13:06:46;;;;;;;2.60;2.50;;;37.90;38.30;;;;;;4987614;28;20496;-68
2022/10/04 13:09:35;;;;;;;3.10;2.80;;;37.30;38.40;;;;;;5005989;28;21001;-68
2022/10/04 13:12:21;;;;;;;4.63;4.13;;;35.30;40.20;;;;;;5014949;28;20962;-68
2022/10/04 13:15:21;;;;;;;4.50;4.10;;;37.60;38.90;;;;;;5011507;28;20475;-68
2022/10/04 13:17:51;;;;;;;5.43;3.47;;;39.40;37.70;;;;;;5009249;28;20448;-68
2022/10/04 13:20:28;;;;;;;3.37;3.17;;;40.90;35.00;;;;;;5008141;28;20438;-69
2022/10/04 13:23:13;;;;;;;3.33;2.93;;;41.80;33.20;;;;;;5010508;28;20444;-69
2022/10/04 13:26:16;;;;;;;4.10;3.70;;;41.70;33.40;;;;;;5007785;28;20468;-69
2022/10/04 13:29:05;;;;;;;3.83;3.43;;;42.10;32.30;;;;;;5004314;28;20583;-69
2022/10/04 13:31:42;;;;;;;3.13;2.93;;;41.10;31.10;;;;;;5009858;28;20991;-69
2022/10/04 13:34:27;;;;;;;3.30;3.03;;;37.40;34.00;;;;;;5008085;28;20453;-69
2022/10/04 13:37:15;;;;;;;3.60;3.30;;;37.40;34.50;;;;;;5012436;28;20441;-68
2022/10/04 13:39:45;;;;;;;3.87;3.40;;;33.80;36.00;;;;;;5009757;28;20438;-70
2022/10/04 13:42:30;;;;;;;3.53;3.10;;;33.60;38.80;;;;;;5005953;28;20437;-68
2022/10/04 13:45:23;;;;;;;4.00;2.77;;;33.70;38.00;;;;;;5009947;28;20958;-68
2022/10/04 13:48:24;;;;;;;3.63;2.70;;;33.50;38.40;;;;;;5007249;28;20499;-70
2022/10/04 13:51:14;;;;;;;2.67;2.47;;;32.50;39.00;;;;;;5009963;28;20961;-70
2022/10/04 13:56:55;;;;;;;3.93;2.40;;;29.80;41.40;;;;;;5007760;28;20440;-70
2022/10/04 13:59:30;;;;;;;3.20;2.90;;;28.10;43.00;;;;;;5008689;28;20437;-69
2022/10/04 14:02:27;;;;;;;3.10;2.90;;;26.10;46.00;;;;;;5009928;28;20499;-69
2022/10/04 14:05:11;;;;;;;4.50;2.90;;;24.10;50.00;;;;;;5011403;28;20505;-69
2022/10/04 14:08:04;;;;;;;4.50;3.00;;;23.10;52.80;;;;;;5010956;28;20519;-69
2022/10/04 14:10:35;;;;;;;5.77;4.60;;;22.30;55.40;;;;;;5008319;28;20778;-69
2022/10/04 14:13:31;;;;;;;7.60;2.90;;;22.30;57.80;;;;;;5022140;28;20437;-69
2022/10/04 14:16:16;;;;;;;1.97;1.87;;;22.20;58.20;;;;;;5032430;28;20909;-69